createdAt,value
2019-02-21T00:01:35.817Z,8.53
2019-02-21T00:04:03.287Z,8.51
2019-02-21T00:06:30.747Z,8.28
2019-02-21T00:08:58.214Z,8.37
2019-02-21T00:11:25.681Z,8.38
2019-02-21T00:13:53.153Z,8.50
2019-02-21T00:16:20.622Z,8.62
2019-02-21T00:18:49.230Z,8.65
2019-02-21T00:21:16.743Z,8.39
2019-02-21T00:23:44.235Z,8.70
2019-02-21T00:26:11.699Z,8.74
2019-02-21T00:28:39.137Z,8.86
2019-02-21T00:31:06.607Z,8.72
2019-02-21T00:33:34.081Z,8.75
2019-02-21T00:36:01.547Z,8.80
2019-02-21T00:38:28.994Z,8.94
2019-02-21T00:40:56.470Z,8.84
2019-02-21T00:43:23.933Z,9.07
2019-02-21T00:45:51.378Z,9.00
2019-02-21T00:48:18.856Z,9.07
2019-02-21T00:50:46.893Z,9.19
2019-02-21T00:53:14.385Z,9.21
2019-02-21T00:55:41.833Z,9.29
2019-02-21T00:58:09.294Z,9.31
2019-02-21T01:00:46.136Z,9.31
2019-02-21T01:03:04.207Z,9.37
2019-02-21T01:05:31.664Z,8.99
2019-02-21T01:07:59.165Z,9.10
2019-02-21T01:10:26.607Z,9.03
2019-02-21T01:12:54.069Z,9.02
2019-02-21T01:15:21.557Z,9.00
2019-02-21T01:17:49.005Z,9.07
2019-02-21T01:20:17.452Z,8.89
2019-02-21T01:22:44.922Z,9.18
2019-02-21T01:25:12.419Z,9.20
2019-02-21T01:27:39.891Z,9.02
2019-02-21T01:30:07.344Z,9.05
2019-02-21T01:32:34.823Z,9.21
2019-02-21T01:35:02.254Z,9.03
2019-02-21T01:37:29.739Z,9.21
2019-02-21T01:39:57.217Z,9.19
2019-02-21T01:42:26.004Z,9.13
2019-02-21T01:44:53.577Z,9.08
2019-02-21T01:47:21.045Z,9.09
2019-02-21T01:49:48.517Z,9.11
2019-02-21T01:52:15.987Z,9.28
2019-02-21T01:54:43.474Z,8.87
2019-02-21T01:57:10.953Z,8.87
2019-02-21T01:59:38.429Z,8.73
2019-02-21T02:02:05.867Z,8.81
2019-02-21T02:04:33.327Z,8.75
2019-02-21T02:07:00.792Z,8.93
2019-02-21T02:09:28.242Z,8.79
2019-02-21T02:11:55.700Z,8.82
2019-02-21T02:14:23.151Z,8.88
2019-02-21T02:16:50.617Z,8.96
2019-02-21T02:19:18.496Z,8.56
2019-02-21T02:21:45.985Z,8.86
2019-02-21T02:24:14.842Z,8.91
2019-02-21T02:26:41.832Z,8.84
2019-02-21T02:29:09.385Z,8.62
2019-02-21T02:31:36.833Z,8.59
2019-02-21T02:34:04.299Z,8.39
2019-02-21T02:36:31.758Z,8.56
2019-02-21T02:38:59.227Z,8.68
2019-02-21T02:41:26.671Z,8.47
2019-02-21T02:43:54.097Z,8.52
2019-02-21T02:46:21.539Z,8.17
2019-02-21T02:48:49.069Z,8.50
2019-02-21T02:51:16.559Z,8.40
2019-02-21T02:53:44.020Z,8.23
2019-02-21T02:56:11.489Z,8.35
2019-02-21T02:58:38.984Z,8.60
2019-02-21T03:01:07.503Z,8.74
2019-02-21T03:03:35.125Z,8.64
2019-02-21T03:06:02.641Z,8.78
2019-02-21T03:08:30.082Z,8.90
2019-02-21T03:10:57.519Z,8.89
2019-02-21T03:13:24.979Z,8.96
2019-02-21T03:15:52.409Z,9.00
2019-02-21T03:18:19.853Z,8.78
2019-02-21T03:20:47.309Z,8.76
2019-02-21T03:23:14.795Z,8.76
2019-02-21T03:25:42.259Z,8.55
2019-02-21T03:28:09.725Z,8.48
2019-02-21T03:30:37.173Z,8.36
2019-02-21T03:33:04.651Z,8.20
2019-02-21T03:35:33.677Z,8.25
2019-02-21T03:38:01.122Z,8.17
2019-02-21T03:40:28.588Z,8.39
2019-02-21T03:42:56.127Z,8.27
2019-02-21T03:45:23.551Z,8.37
2019-02-21T03:47:51.009Z,8.57
2019-02-21T03:50:18.497Z,8.15
2019-02-21T03:52:45.984Z,8.52
2019-02-21T03:55:13.443Z,8.50
2019-02-21T03:57:40.898Z,8.45
2019-02-21T04:00:08.381Z,8.32
2019-02-21T04:02:35.849Z,8.41
2019-02-21T04:05:03.375Z,8.40
2019-02-21T04:07:30.815Z,8.56
2019-02-21T04:09:58.304Z,8.37
2019-02-21T04:12:25.751Z,8.34
2019-02-21T04:14:53.214Z,8.24
2019-02-21T04:17:20.993Z,8.09
2019-02-21T04:19:48.620Z,8.35
2019-02-21T04:22:16.123Z,8.34
2019-02-21T04:24:43.575Z,8.49
2019-02-21T04:27:11.032Z,8.49
2019-02-21T04:29:38.530Z,8.55
2019-02-21T04:32:16.659Z,8.50
2019-02-21T04:34:33.470Z,8.37
2019-02-21T04:37:00.946Z,8.07
2019-02-21T04:39:28.407Z,8.35
2019-02-21T04:41:55.912Z,8.63
2019-02-21T04:44:23.379Z,8.53
2019-02-21T04:46:51.633Z,8.28
2019-02-21T04:49:19.059Z,8.62
2019-02-21T04:51:46.547Z,8.31
2019-02-21T04:54:13.978Z,8.57
2019-02-21T04:56:41.498Z,8.49
2019-02-21T04:59:08.968Z,8.53
2019-02-21T05:01:36.443Z,8.25
2019-02-21T05:04:04.931Z,8.50
2019-02-21T05:06:31.372Z,8.46
2019-02-21T05:08:58.861Z,8.66
2019-02-21T05:11:26.335Z,8.64
2019-02-21T05:13:54.077Z,8.71
2019-02-21T05:16:22.324Z,8.36
2019-02-21T05:18:49.809Z,8.72
2019-02-21T05:21:17.269Z,8.65
2019-02-21T05:23:44.738Z,8.54
2019-02-21T05:26:12.186Z,8.52
2019-02-21T05:28:41.280Z,8.70
2019-02-21T05:31:22.922Z,8.36
2019-02-21T05:33:50.878Z,8.47
2019-02-21T05:36:21.325Z,8.56
2019-02-21T05:39:07.511Z,8.35
2019-02-21T05:41:35.755Z,8.28
2019-02-21T05:44:08.920Z,8.34
2019-02-21T05:46:37.899Z,8.28
2019-02-21T05:49:11.484Z,8.21
2019-02-21T05:51:38.075Z,7.97
2019-02-21T05:54:07.072Z,8.03
2019-02-21T05:56:35.386Z,7.87
2019-02-21T05:59:05.652Z,7.75
2019-02-21T06:01:33.878Z,8.00
2019-02-21T06:04:19.399Z,8.26
2019-02-21T06:06:45.470Z,8.28
2019-02-21T06:09:12.930Z,8.43
2019-02-21T06:11:42.222Z,8.21
2019-02-21T06:14:11.416Z,8.45
2019-02-21T06:16:40.728Z,8.61
2019-02-21T06:19:09.124Z,8.40
2019-02-21T06:21:38.137Z,8.23
2019-02-21T06:24:11.258Z,8.04
2019-02-21T06:26:39.626Z,8.36
2019-02-21T06:29:06.685Z,8.03
2019-02-21T06:31:34.195Z,7.97
2019-02-21T06:34:01.781Z,8.06
2019-02-21T06:36:29.264Z,8.16
2019-02-21T06:38:56.719Z,7.95
2019-02-21T06:41:24.213Z,8.11
2019-02-21T06:43:52.692Z,8.42
2019-02-21T06:46:19.271Z,8.26
2019-02-21T06:48:46.725Z,8.41
2019-02-21T06:51:14.252Z,8.33
2019-02-21T06:53:41.638Z,8.11
2019-02-21T06:56:09.096Z,8.26
2019-02-21T06:58:36.540Z,8.16
2019-02-21T07:01:03.970Z,8.48
2019-02-21T07:03:31.461Z,8.35
2019-02-21T07:05:58.915Z,8.39
2019-02-21T07:08:26.464Z,8.51
2019-02-21T07:11:05.457Z,8.56
2019-02-21T07:13:26.466Z,8.36
2019-02-21T07:15:49.495Z,8.42
2019-02-21T07:18:17.037Z,8.47
2019-02-21T07:20:44.538Z,8.49
2019-02-21T07:23:12.016Z,8.41
2019-02-21T07:25:47.627Z,8.48
2019-02-21T07:28:16.092Z,8.29
2019-02-21T07:30:43.086Z,8.44
2019-02-21T07:33:10.087Z,8.18
2019-02-21T07:35:37.557Z,8.28
2019-02-21T07:38:05.021Z,8.51
2019-02-21T07:40:32.486Z,8.44
2019-02-21T07:42:59.914Z,8.50
2019-02-21T07:45:27.402Z,8.40
2019-02-21T07:47:55.349Z,8.40
2019-02-21T07:50:23.271Z,8.56
2019-02-21T07:53:01.538Z,8.71
2019-02-21T07:55:17.853Z,8.31
2019-02-21T07:57:45.326Z,8.18
2019-02-21T08:00:12.800Z,8.38
2019-02-21T08:02:40.271Z,8.71
2019-02-21T08:05:07.713Z,8.57
2019-02-21T08:07:35.162Z,8.56
2019-02-21T08:10:02.651Z,8.69
2019-02-21T08:12:30.111Z,8.77
2019-02-21T08:14:57.578Z,8.83
2019-02-21T08:17:27.826Z,8.78
2019-02-21T08:19:53.357Z,8.82
2019-02-21T08:22:20.890Z,8.75
2019-02-21T08:24:48.376Z,9.05
2019-02-21T08:27:15.812Z,9.00
2019-02-21T08:29:43.263Z,9.02
2019-02-21T08:32:10.699Z,9.40
2019-02-21T08:34:39.138Z,9.16
2019-02-21T08:37:08.742Z,9.22
2019-02-21T08:39:34.065Z,9.28
2019-02-21T08:42:01.524Z,9.25
2019-02-21T08:44:29.142Z,9.25
2019-02-21T08:46:56.566Z,9.40
2019-02-21T08:49:23.995Z,9.24
2019-02-21T08:51:51.487Z,9.46
2019-02-21T08:54:18.941Z,9.41
2019-02-21T08:56:46.407Z,9.39
2019-02-21T08:59:13.889Z,9.52
2019-02-21T09:01:41.348Z,9.47
2019-02-21T09:04:13.553Z,9.62
2019-02-21T09:06:36.270Z,9.52
2019-02-21T09:09:03.746Z,9.61
2019-02-21T09:11:31.187Z,9.58
2019-02-21T09:13:58.647Z,9.37
2019-02-21T09:16:27.027Z,9.53
2019-02-21T09:18:54.507Z,9.34
2019-02-21T09:21:21.977Z,9.57
2019-02-21T09:23:49.945Z,9.49
2019-02-21T09:26:17.396Z,9.48
2019-02-21T09:28:44.866Z,9.53
2019-02-21T09:31:12.320Z,9.38
2019-02-21T09:33:39.786Z,9.34
2019-02-21T09:36:07.249Z,9.48
2019-02-21T09:38:34.925Z,9.37
2019-02-21T09:41:02.236Z,9.64
2019-02-21T09:43:29.691Z,9.58
2019-02-21T09:45:59.139Z,9.54
2019-02-21T09:48:27.498Z,9.53
2019-02-21T09:50:54.978Z,9.73
2019-02-21T09:53:22.488Z,9.67
2019-02-21T09:55:50.521Z,9.83
2019-02-21T09:58:17.420Z,9.94
2019-02-21T10:00:44.870Z,10.03
2019-02-21T10:03:12.327Z,9.93
2019-02-21T10:05:39.811Z,9.96
2019-02-21T10:08:09.137Z,9.99
2019-02-21T10:10:36.733Z,9.98
2019-02-21T10:13:04.367Z,9.86
2019-02-21T10:15:31.850Z,10.03
2019-02-21T10:17:59.309Z,10.03
2019-02-21T10:20:28.089Z,10.19
2019-02-21T10:22:55.538Z,10.23
2019-02-21T10:25:23.394Z,10.14
2019-02-21T10:27:50.515Z,10.14
2019-02-21T10:30:18.006Z,10.17
2019-02-21T10:32:45.493Z,9.98
2019-02-21T10:35:12.943Z,10.04
2019-02-21T10:37:40.425Z,10.27
2019-02-21T10:40:07.878Z,10.26
2019-02-21T10:42:35.343Z,10.29
2019-02-21T10:45:03.511Z,10.36
2019-02-21T10:47:30.266Z,10.24
2019-02-21T10:49:58.770Z,10.30
2019-02-21T10:52:26.235Z,10.49
2019-02-21T10:54:53.706Z,10.51
2019-02-21T10:57:21.135Z,10.54
2019-02-21T10:59:48.596Z,10.66
2019-02-21T11:02:16.063Z,10.81
2019-02-21T11:04:54.147Z,10.85
2019-02-21T11:07:10.988Z,10.79
2019-02-21T11:09:38.439Z,10.74
2019-02-21T11:12:05.910Z,11.02
2019-02-21T11:14:33.396Z,11.23
2019-02-21T11:17:00.895Z,11.18
2019-02-21T11:19:29.241Z,11.08
2019-02-21T11:21:56.710Z,11.38
2019-02-21T11:24:24.188Z,11.37
2019-02-21T11:26:51.632Z,11.42
2019-02-21T11:29:19.098Z,11.43
2019-02-21T11:31:46.573Z,11.43
2019-02-21T11:34:14.018Z,11.41
2019-02-21T11:36:41.481Z,11.49
2019-02-21T11:39:08.951Z,11.45
2019-02-21T11:41:37.373Z,11.36
2019-02-21T11:44:04.904Z,11.43
2019-02-21T11:46:32.335Z,11.40
2019-02-21T11:48:59.791Z,11.54
2019-02-21T11:51:27.275Z,11.31
2019-02-21T11:53:54.805Z,11.26
2019-02-21T11:56:22.310Z,11.26
2019-02-21T11:58:49.790Z,11.40
2019-02-21T12:01:17.236Z,11.34
2019-02-21T12:03:44.695Z,11.26
2019-02-21T12:06:12.151Z,11.42
2019-02-21T12:08:39.602Z,11.62
2019-02-21T12:11:07.075Z,11.58
2019-02-21T12:13:34.536Z,11.67
2019-02-21T12:16:02.009Z,11.77
2019-02-21T12:18:30.244Z,11.69
2019-02-21T12:20:57.751Z,11.58
2019-02-21T12:23:25.249Z,11.60
2019-02-21T12:25:52.754Z,11.78
2019-02-21T12:28:20.233Z,11.74
2019-02-21T12:30:48.219Z,11.63
2019-02-21T12:33:15.858Z,11.84
2019-02-21T12:35:43.323Z,12.08
2019-02-21T12:38:10.776Z,12.18
2019-02-21T12:40:38.336Z,12.07
2019-02-21T12:43:05.713Z,12.04
2019-02-21T12:45:33.184Z,11.95
2019-02-21T12:48:00.817Z,12.05
2019-02-21T12:50:28.337Z,12.34
2019-02-21T12:52:55.789Z,12.18
2019-02-21T12:55:29.250Z,12.24
2019-02-21T12:57:50.710Z,12.13
2019-02-21T13:00:19.035Z,12.09
2019-02-21T13:02:46.503Z,12.12
2019-02-21T13:05:13.987Z,12.18
2019-02-21T13:07:41.475Z,12.16
2019-02-21T13:10:11.733Z,12.28
2019-02-21T13:12:39.243Z,12.30
2019-02-21T13:15:06.705Z,12.10
2019-02-21T13:17:34.211Z,12.19
2019-02-21T13:20:01.676Z,12.21
2019-02-21T13:22:29.135Z,12.50
2019-02-21T13:24:56.577Z,12.60
2019-02-21T13:27:24.039Z,12.77
2019-02-21T13:29:54.475Z,12.54
2019-02-21T13:32:18.964Z,12.26
2019-02-21T13:34:46.427Z,12.29
2019-02-21T13:37:14.213Z,12.25
2019-02-21T13:39:42.329Z,12.21
2019-02-21T13:42:09.808Z,12.07
2019-02-21T13:44:37.278Z,12.16
2019-02-21T13:47:04.735Z,11.81
2019-02-21T13:49:32.212Z,11.89
2019-02-21T13:51:59.651Z,12.14
2019-02-21T13:54:27.131Z,12.13
2019-02-21T13:56:54.585Z,12.22
2019-02-21T13:59:22.043Z,12.03
2019-02-21T14:01:49.507Z,12.33
2019-02-21T14:04:16.943Z,12.43
2019-02-21T14:06:44.405Z,12.42
2019-02-21T14:09:11.921Z,12.00
2019-02-21T14:11:39.416Z,12.05
2019-02-21T14:14:06.872Z,11.73
2019-02-21T14:16:43.830Z,12.15
2019-02-21T14:19:02.607Z,11.92
2019-02-21T14:21:30.096Z,11.91
2019-02-21T14:23:57.541Z,11.59
2019-02-21T14:26:25.036Z,11.66
2019-02-21T14:28:52.485Z,11.73
2019-02-21T14:31:19.938Z,11.73
2019-02-21T14:33:47.417Z,11.53
2019-02-21T14:36:16.785Z,11.81
2019-02-21T14:38:42.330Z,11.64
2019-02-21T14:41:09.803Z,11.78
2019-02-21T14:43:37.290Z,11.67
2019-02-21T14:46:04.751Z,11.78
2019-02-21T14:48:33.128Z,11.65
2019-02-21T14:51:00.597Z,11.79
2019-02-21T14:53:28.041Z,11.67
2019-02-21T14:55:55.573Z,11.75
2019-02-21T14:58:23.019Z,11.85
2019-02-21T15:00:50.487Z,11.92
2019-02-21T15:03:21.908Z,11.83
2019-02-21T15:05:45.440Z,11.93
2019-02-21T15:08:12.914Z,12.06
2019-02-21T15:10:40.376Z,11.93
2019-02-21T15:13:07.862Z,12.13
2019-02-21T15:15:35.298Z,12.31
2019-02-21T15:18:07.373Z,12.12
2019-02-21T15:20:36.897Z,11.90
2019-02-21T15:22:58.773Z,11.90
2019-02-21T15:25:26.256Z,11.78
2019-02-21T15:27:53.714Z,11.80
2019-02-21T15:30:22.059Z,11.77
2019-02-21T15:32:49.529Z,11.75
2019-02-21T15:35:19.263Z,11.76
2019-02-21T15:37:45.130Z,11.72
2019-02-21T15:40:12.003Z,11.69
2019-02-21T15:42:39.489Z,11.97
2019-02-21T15:45:09.710Z,11.80
2019-02-21T15:47:35.819Z,11.76
2019-02-21T15:50:04.395Z,11.67
2019-02-21T15:52:31.837Z,11.75
2019-02-21T15:54:59.295Z,11.84
2019-02-21T15:57:26.762Z,11.87
2019-02-21T15:59:54.238Z,11.91
2019-02-21T16:02:21.746Z,11.74
2019-02-21T16:04:49.847Z,11.70
2019-02-21T16:07:17.413Z,11.67
2019-02-21T16:09:44.860Z,11.77
2019-02-21T16:12:12.556Z,11.83
2019-02-21T16:14:39.817Z,11.85
2019-02-21T16:17:07.313Z,11.99
2019-02-21T16:19:35.717Z,11.92
2019-02-21T16:22:03.181Z,11.83
2019-02-21T16:24:30.687Z,11.76
2019-02-21T16:26:59.937Z,12.01
2019-02-21T16:29:28.320Z,12.01
2019-02-21T16:31:55.787Z,12.07
2019-02-21T16:34:23.251Z,11.92
2019-02-21T16:37:01.861Z,11.90
2019-02-21T16:39:18.242Z,11.77
2019-02-21T16:41:45.711Z,11.82
2019-02-21T16:44:13.194Z,11.80
2019-02-21T16:46:40.644Z,11.98
2019-02-21T16:49:08.663Z,11.86
2019-02-21T16:51:36.205Z,11.79
2019-02-21T16:54:03.672Z,11.56
2019-02-21T16:56:31.138Z,11.74
2019-02-21T16:58:58.644Z,11.83
2019-02-21T17:01:26.075Z,11.79
2019-02-21T17:03:53.562Z,11.91
2019-02-21T17:06:21.037Z,11.66
2019-02-21T17:08:48.502Z,11.58
2019-02-21T17:11:18.110Z,11.61
2019-02-21T17:13:45.779Z,11.64
2019-02-21T17:16:13.223Z,11.63
2019-02-21T17:18:40.701Z,11.39
2019-02-21T17:21:08.153Z,11.41
2019-02-21T17:23:36.123Z,11.43
2019-02-21T17:26:03.587Z,11.50
2019-02-21T17:28:31.067Z,11.60
2019-02-21T17:30:58.501Z,11.29
2019-02-21T17:33:25.988Z,11.56
2019-02-21T17:35:53.440Z,11.38
2019-02-21T17:38:20.901Z,11.36
2019-02-21T17:40:48.379Z,11.27
2019-02-21T17:43:16.066Z,11.26
2019-02-21T17:45:43.882Z,11.34
2019-02-21T17:48:12.724Z,11.26
2019-02-21T17:50:40.663Z,11.21
2019-02-21T17:53:09.409Z,11.08
2019-02-21T17:55:37.827Z,11.11
2019-02-21T17:58:06.097Z,11.13
2019-02-21T18:00:41.073Z,10.91
2019-02-21T18:03:08.543Z,11.18
2019-02-21T18:05:35.989Z,11.34
2019-02-21T18:08:03.497Z,11.16
2019-02-21T18:10:30.978Z,11.16
2019-02-21T18:12:58.462Z,11.15
2019-02-21T18:15:25.944Z,11.24
2019-02-21T18:17:53.454Z,11.27
2019-02-21T18:20:20.941Z,11.38
2019-02-21T18:22:49.035Z,11.43
2019-02-21T18:25:16.620Z,11.29
2019-02-21T18:27:44.161Z,11.57
2019-02-21T18:30:11.871Z,11.34
2019-02-21T18:32:40.013Z,11.03
2019-02-21T18:35:07.878Z,10.98
2019-02-21T18:37:46.670Z,11.03
2019-02-21T18:40:04.176Z,10.81
2019-02-21T18:42:31.900Z,10.90
2019-02-21T18:44:59.404Z,10.97
2019-02-21T18:47:26.882Z,11.00
2019-02-21T18:49:54.355Z,11.05
2019-02-21T18:52:21.977Z,10.98
2019-02-21T18:54:49.860Z,11.28
2019-02-21T18:57:17.474Z,10.93
2019-02-21T18:59:45.135Z,11.02
2019-02-21T19:02:12.615Z,10.80
2019-02-21T19:04:40.050Z,10.74
2019-02-21T19:07:08.567Z,10.66
2019-02-21T19:09:36.038Z,10.54
2019-02-21T19:12:04.574Z,10.50
2019-02-21T19:14:32.095Z,10.38
2019-02-21T19:16:59.568Z,10.55
2019-02-21T19:19:27.024Z,10.43
2019-02-21T19:21:54.488Z,10.65
2019-02-21T19:24:22.006Z,10.57
2019-02-21T19:26:49.471Z,10.57
2019-02-21T19:29:16.956Z,10.51
2019-02-21T19:31:44.501Z,10.65
2019-02-21T19:34:11.962Z,10.78
2019-02-21T19:36:39.427Z,10.82
2019-02-21T19:39:06.900Z,10.78
2019-02-21T19:41:34.419Z,10.85
2019-02-21T19:44:08.743Z,10.86
2019-02-21T19:46:29.382Z,10.80
2019-02-21T19:48:56.940Z,10.64
2019-02-21T19:51:24.428Z,10.51
2019-02-21T19:53:51.900Z,10.45
2019-02-21T19:56:19.408Z,10.33
2019-02-21T19:58:46.879Z,10.37
2019-02-21T20:01:14.336Z,10.41
2019-02-21T20:03:41.887Z,10.54
2019-02-21T20:06:09.749Z,10.28
2019-02-21T20:08:37.242Z,10.40
2019-02-21T20:11:04.736Z,10.35
2019-02-21T20:13:32.246Z,10.43
2019-02-21T20:15:59.760Z,10.52
2019-02-21T20:18:27.252Z,10.48
2019-02-21T20:20:56.108Z,10.36
2019-02-21T20:23:23.638Z,10.51
2019-02-21T20:25:51.116Z,10.43
2019-02-21T20:28:18.628Z,10.50
2019-02-21T20:30:46.117Z,10.48
2019-02-21T20:33:13.604Z,10.41
2019-02-21T20:35:41.078Z,10.64
2019-02-21T20:38:08.519Z,10.56
2019-02-21T20:40:35.970Z,10.68
2019-02-21T20:43:03.596Z,10.56
2019-02-21T20:45:31.081Z,10.43
2019-02-21T20:47:58.566Z,10.50
2019-02-21T20:50:26.065Z,10.46
2019-02-21T20:52:53.529Z,10.57
2019-02-21T20:55:21.046Z,10.25
2019-02-21T20:57:48.724Z,10.20
2019-02-21T21:00:16.222Z,10.41
2019-02-21T21:02:43.684Z,10.38
2019-02-21T21:05:11.309Z,10.24
2019-02-21T21:07:38.760Z,10.15
2019-02-21T21:10:06.215Z,10.19
2019-02-21T21:12:33.717Z,10.06
2019-02-21T21:15:01.210Z,10.14
2019-02-21T21:17:28.663Z,10.08
2019-02-21T21:19:56.146Z,10.38
2019-02-21T21:22:23.590Z,10.03
2019-02-21T21:24:51.091Z,10.36
2019-02-21T21:27:18.828Z,10.11
2019-02-21T21:29:46.333Z,10.15
2019-02-21T21:32:13.841Z,10.07
2019-02-21T21:34:41.798Z,9.75
2019-02-21T21:37:09.282Z,9.91
2019-02-21T21:39:36.732Z,10.17
2019-02-21T21:42:04.254Z,9.92
2019-02-21T21:44:31.705Z,9.86
2019-02-21T21:46:59.191Z,10.06
2019-02-21T21:49:26.683Z,9.95
2019-02-21T21:51:54.154Z,9.75
2019-02-21T21:54:21.796Z,10.00
2019-02-21T21:56:49.374Z,10.19
2019-02-21T21:59:16.979Z,10.29
2019-02-21T22:01:44.483Z,10.10
2019-02-21T22:04:12.585Z,10.05
2019-02-21T22:06:40.107Z,9.93
2019-02-21T22:09:07.659Z,9.92
2019-02-21T22:11:35.257Z,10.02
2019-02-21T22:14:02.802Z,10.22
2019-02-21T22:16:30.309Z,9.94
2019-02-21T22:18:57.767Z,9.90
2019-02-21T22:21:25.272Z,9.91
2019-02-21T22:23:52.862Z,9.99
2019-02-21T22:26:21.478Z,9.94
2019-02-21T22:28:49.040Z,10.00
2019-02-21T22:31:16.507Z,9.85
2019-02-21T22:33:43.996Z,9.93
2019-02-21T22:36:12.295Z,9.91
2019-02-21T22:38:39.815Z,9.91
2019-02-21T22:41:07.336Z,9.86
2019-02-21T22:43:34.842Z,9.65
2019-02-21T22:46:02.336Z,9.81
2019-02-21T22:48:29.948Z,10.02
2019-02-21T22:50:57.465Z,10.10
2019-02-21T22:53:24.952Z,10.05
2019-02-21T22:55:52.452Z,9.77
2019-02-21T22:58:19.925Z,9.64
2019-02-21T23:00:53.721Z,9.53
2019-02-21T23:03:21.215Z,9.83
2019-02-21T23:06:11.211Z,10.03
2019-02-21T23:08:47.156Z,9.83
2019-02-21T23:11:14.644Z,9.84
2019-02-21T23:13:42.168Z,9.77
2019-02-21T23:16:09.594Z,9.81
2019-02-21T23:18:37.032Z,9.89
2019-02-21T23:21:04.472Z,10.14
2019-02-21T23:23:31.955Z,9.85
2019-02-21T23:25:59.397Z,10.13
2019-02-21T23:28:26.859Z,10.18
2019-02-21T23:30:54.307Z,9.84
2019-02-21T23:33:21.791Z,9.77
2019-02-21T23:35:49.262Z,9.85
2019-02-21T23:38:16.736Z,9.83
2019-02-21T23:40:44.440Z,9.79
2019-02-21T23:43:11.906Z,9.91
2019-02-21T23:45:40.027Z,10.02
2019-02-21T23:48:07.542Z,10.00
2019-02-21T23:50:35.004Z,10.12
2019-02-21T23:53:02.484Z,10.42
2019-02-21T23:55:29.940Z,10.36
2019-02-21T23:57:57.390Z,10.08
